sensor_id;sensor_type;location;lat;lon;timestamp;P1;durP1;ratioP1;P2;durP2;ratioP2
37485;SDS011;23341;50.296;18.960;2023-06-22T00:03:17;14.50;;;10.60;;
37485;SDS011;23341;50.296;18.960;2023-06-22T00:08:22;11.85;;;8.90;;
37485;SDS011;23341;50.296;18.960;2023-06-22T00:13:28;16.30;;;9.75;;
37485;SDS011;23341;50.296;18.960;2023-06-22T00:18:32;16.67;;;10.50;;
37485;SDS011;23341;50.296;18.960;2023-06-22T00:23:37;16.20;;;10.38;;
37485;SDS011;23341;50.296;18.960;2023-06-22T00:28:43;16.13;;;10.35;;
37485;SDS011;23341;50.296;18.960;2023-06-22T00:33:47;15.05;;;10.65;;
37485;SDS011;23341;50.296;18.960;2023-06-22T00:38:53;20.77;;;10.38;;
37485;SDS011;23341;50.296;18.960;2023-06-22T00:43:59;12.70;;;10.07;;
37485;SDS011;23341;50.296;18.960;2023-06-22T00:49:06;13.40;;;9.90;;
37485;SDS011;23341;50.296;18.960;2023-06-22T00:54:10;11.55;;;9.25;;
37485;SDS011;23341;50.296;18.960;2023-06-22T00:59:17;13.73;;;9.30;;
37485;SDS011;23341;50.296;18.960;2023-06-22T01:04:24;19.40;;;9.52;;
37485;SDS011;23341;50.296;18.960;2023-06-22T01:09:41;16.92;;;9.70;;
37485;SDS011;23341;50.296;18.960;2023-06-22T01:14:55;16.80;;;9.82;;
37485;SDS011;23341;50.296;18.960;2023-06-22T01:20:06;19.95;;;9.90;;
37485;SDS011;23341;50.296;18.960;2023-06-22T01:25:17;11.98;;;8.15;;
37485;SDS011;23341;50.296;18.960;2023-06-22T01:30:26;18.23;;;10.98;;
37485;SDS011;23341;50.296;18.960;2023-06-22T01:35:32;17.90;;;9.93;;
37485;SDS011;23341;50.296;18.960;2023-06-22T01:40:37;12.38;;;8.40;;
37485;SDS011;23341;50.296;18.960;2023-06-22T01:45:43;15.05;;;8.27;;
37485;SDS011;23341;50.296;18.960;2023-06-22T01:50:48;12.43;;;8.32;;
37485;SDS011;23341;50.296;18.960;2023-06-22T01:55:53;15.25;;;8.75;;
37485;SDS011;23341;50.296;18.960;2023-06-22T02:01:00;14.40;;;8.30;;
37485;SDS011;23341;50.296;18.960;2023-06-22T02:06:14;9.55;;;7.82;;
37485;SDS011;23341;50.296;18.960;2023-06-22T02:11:25;9.70;;;7.50;;
37485;SDS011;23341;50.296;18.960;2023-06-22T02:16:34;15.25;;;8.52;;
37485;SDS011;23341;50.296;18.960;2023-06-22T02:21:40;15.25;;;8.48;;
37485;SDS011;23341;50.296;18.960;2023-06-22T02:26:44;16.95;;;8.57;;
37485;SDS011;23341;50.296;18.960;2023-06-22T02:31:50;13.70;;;9.02;;
37485;SDS011;23341;50.296;18.960;2023-06-22T02:36:55;16.73;;;10.00;;
37485;SDS011;23341;50.296;18.960;2023-06-22T02:42:01;22.77;;;10.00;;
37485;SDS011;23341;50.296;18.960;2023-06-22T02:47:07;17.63;;;8.43;;
37485;SDS011;23341;50.296;18.960;2023-06-22T02:52:12;17.60;;;8.35;;
37485;SDS011;23341;50.296;18.960;2023-06-22T02:57:17;18.83;;;9.77;;
37485;SDS011;23341;50.296;18.960;2023-06-22T03:02:23;15.73;;;8.70;;
37485;SDS011;23341;50.296;18.960;2023-06-22T03:07:29;13.85;;;8.30;;
37485;SDS011;23341;50.296;18.960;2023-06-22T03:12:34;12.68;;;7.57;;
37485;SDS011;23341;50.296;18.960;2023-06-22T03:17:40;17.05;;;8.65;;
37485;SDS011;23341;50.296;18.960;2023-06-22T03:22:44;12.38;;;8.27;;
37485;SDS011;23341;50.296;18.960;2023-06-22T03:27:48;14.45;;;9.02;;
37485;SDS011;23341;50.296;18.960;2023-06-22T03:32:54;14.32;;;9.25;;
37485;SDS011;23341;50.296;18.960;2023-06-22T03:38:01;13.77;;;9.40;;
37485;SDS011;23341;50.296;18.960;2023-06-22T03:43:05;11.98;;;9.27;;
37485;SDS011;23341;50.296;18.960;2023-06-22T03:48:12;12.88;;;9.63;;
37485;SDS011;23341;50.296;18.960;2023-06-22T03:53:16;17.75;;;10.32;;
37485;SDS011;23341;50.296;18.960;2023-06-22T03:58:21;15.68;;;10.63;;
37485;SDS011;23341;50.296;18.960;2023-06-22T04:03:27;20.15;;;11.85;;
37485;SDS011;23341;50.296;18.960;2023-06-22T04:08:31;20.98;;;12.52;;
37485;SDS011;23341;50.296;18.960;2023-06-22T04:13:35;19.90;;;13.43;;
37485;SDS011;23341;50.296;18.960;2023-06-22T04:18:41;18.80;;;13.55;;
37485;SDS011;23341;50.296;18.960;2023-06-22T04:23:45;16.95;;;14.80;;
37485;SDS011;23341;50.296;18.960;2023-06-22T04:28:50;21.52;;;15.80;;
37485;SDS011;23341;50.296;18.960;2023-06-22T04:33:59;19.48;;;14.93;;
37485;SDS011;23341;50.296;18.960;2023-06-22T04:39:09;23.92;;;16.70;;
37485;SDS011;23341;50.296;18.960;2023-06-22T04:44:15;21.23;;;16.77;;
37485;SDS011;23341;50.296;18.960;2023-06-22T04:49:28;25.65;;;17.17;;
37485;SDS011;23341;50.296;18.960;2023-06-22T04:54:37;32.80;;;17.75;;
37485;SDS011;23341;50.296;18.960;2023-06-22T04:59:43;22.33;;;18.02;;
37485;SDS011;23341;50.296;18.960;2023-06-22T05:04:49;25.92;;;19.75;;
37485;SDS011;23341;50.296;18.960;2023-06-22T05:09:54;27.38;;;20.35;;
37485;SDS011;23341;50.296;18.960;2023-06-22T05:14:58;22.98;;;20.20;;
37485;SDS011;23341;50.296;18.960;2023-06-22T05:20:06;27.42;;;22.05;;
37485;SDS011;23341;50.296;18.960;2023-06-22T05:25:11;25.48;;;21.90;;
37485;SDS011;23341;50.296;18.960;2023-06-22T05:30:16;23.90;;;21.38;;
37485;SDS011;23341;50.296;18.960;2023-06-22T05:35:24;23.75;;;21.35;;
37485;SDS011;23341;50.296;18.960;2023-06-22T05:40:29;25.23;;;22.52;;
37485;SDS011;23341;50.296;18.960;2023-06-22T05:45:33;22.98;;;19.92;;
37485;SDS011;23341;50.296;18.960;2023-06-22T05:50:41;27.85;;;24.83;;
37485;SDS011;23341;50.296;18.960;2023-06-22T05:55:46;39.97;;;34.70;;
37485;SDS011;23341;50.296;18.960;2023-06-22T06:00:50;32.20;;;28.75;;
37485;SDS011;23341;50.296;18.960;2023-06-22T06:05:56;38.90;;;32.78;;
37485;SDS011;23341;50.296;18.960;2023-06-22T06:11:00;23.65;;;21.35;;
37485;SDS011;23341;50.296;18.960;2023-06-22T06:16:04;22.45;;;20.35;;
37485;SDS011;23341;50.296;18.960;2023-06-22T06:21:10;26.40;;;22.80;;
37485;SDS011;23341;50.296;18.960;2023-06-22T06:26:14;24.70;;;22.02;;
37485;SDS011;23341;50.296;18.960;2023-06-22T06:31:19;23.90;;;21.55;;
37485;SDS011;23341;50.296;18.960;2023-06-22T06:36:25;21.73;;;17.65;;
37485;SDS011;23341;50.296;18.960;2023-06-22T06:41:30;14.38;;;13.15;;
37485;SDS011;23341;50.296;18.960;2023-06-22T06:46:35;19.25;;;13.15;;
37485;SDS011;23341;50.296;18.960;2023-06-22T06:51:42;12.30;;;11.02;;
37485;SDS011;23341;50.296;18.960;2023-06-22T06:56:46;11.52;;;10.43;;
37485;SDS011;23341;50.296;18.960;2023-06-22T07:01:50;13.75;;;9.85;;
37485;SDS011;23341;50.296;18.960;2023-06-22T07:06:58;10.32;;;9.50;;
37485;SDS011;23341;50.296;18.960;2023-06-22T07:12:03;12.18;;;10.27;;
37485;SDS011;23341;50.296;18.960;2023-06-22T07:17:08;11.50;;;9.90;;
37485;SDS011;23341;50.296;18.960;2023-06-22T07:22:13;10.82;;;8.40;;
37485;SDS011;23341;50.296;18.960;2023-06-22T07:27:18;9.27;;;8.40;;
37485;SDS011;23341;50.296;18.960;2023-06-22T07:32:23;7.97;;;7.18;;
37485;SDS011;23341;50.296;18.960;2023-06-22T07:37:29;9.35;;;8.45;;
37485;SDS011;23341;50.296;18.960;2023-06-22T07:42:35;29.27;;;10.93;;
37485;SDS011;23341;50.296;18.960;2023-06-22T07:47:40;8.10;;;7.50;;
37485;SDS011;23341;50.296;18.960;2023-06-22T07:52:46;9.85;;;8.93;;
37485;SDS011;23341;50.296;18.960;2023-06-22T07:57:51;8.45;;;7.68;;
37485;SDS011;23341;50.296;18.960;2023-06-22T08:02:55;7.57;;;6.82;;
37485;SDS011;23341;50.296;18.960;2023-06-22T08:08:01;7.95;;;7.22;;
37485;SDS011;23341;50.296;18.960;2023-06-22T08:13:05;8.27;;;6.88;;
37485;SDS011;23341;50.296;18.960;2023-06-22T08:18:10;7.45;;;6.85;;
37485;SDS011;23341;50.296;18.960;2023-06-22T08:23:16;12.00;;;6.93;;
37485;SDS011;23341;50.296;18.960;2023-06-22T08:28:20;7.43;;;6.80;;
37485;SDS011;23341;50.296;18.960;2023-06-22T08:33:24;7.70;;;6.82;;
37485;SDS011;23341;50.296;18.960;2023-06-22T08:38:32;7.53;;;6.35;;
37485;SDS011;23341;50.296;18.960;2023-06-22T08:43:37;7.05;;;5.72;;
37485;SDS011;23341;50.296;18.960;2023-06-22T08:48:41;6.40;;;5.93;;
37485;SDS011;23341;50.296;18.960;2023-06-22T08:53:47;7.43;;;6.30;;
37485;SDS011;23341;50.296;18.960;2023-06-22T08:58:52;5.93;;;5.45;;
37485;SDS011;23341;50.296;18.960;2023-06-22T09:03:59;6.70;;;5.97;;
37485;SDS011;23341;50.296;18.960;2023-06-22T09:09:05;5.68;;;5.28;;
37485;SDS011;23341;50.296;18.960;2023-06-22T09:14:10;6.28;;;5.78;;
37485;SDS011;23341;50.296;18.960;2023-06-22T09:19:15;5.47;;;5.07;;
37485;SDS011;23341;50.296;18.960;2023-06-22T09:24:21;8.93;;;5.90;;
37485;SDS011;23341;50.296;18.960;2023-06-22T09:29:26;6.30;;;5.70;;
37485;SDS011;23341;50.296;18.960;2023-06-22T09:34:30;7.40;;;6.53;;
37485;SDS011;23341;50.296;18.960;2023-06-22T09:39:36;6.15;;;5.65;;
37485;SDS011;23341;50.296;18.960;2023-06-22T09:44:41;6.75;;;6.25;;
37485;SDS011;23341;50.296;18.960;2023-06-22T09:49:45;11.73;;;7.03;;
37485;SDS011;23341;50.296;18.960;2023-06-22T09:54:52;7.10;;;6.55;;
37485;SDS011;23341;50.296;18.960;2023-06-22T09:59:56;6.78;;;6.28;;
37485;SDS011;23341;50.296;18.960;2023-06-22T10:05:00;7.70;;;6.50;;
37485;SDS011;23341;50.296;18.960;2023-06-22T10:10:08;7.30;;;6.70;;
37485;SDS011;23341;50.296;18.960;2023-06-22T10:15:12;7.47;;;6.40;;
37485;SDS011;23341;50.296;18.960;2023-06-22T10:20:18;6.70;;;6.20;;
37485;SDS011;23341;50.296;18.960;2023-06-22T10:25:26;8.10;;;7.15;;
37485;SDS011;23341;50.296;18.960;2023-06-22T10:30:31;6.75;;;6.13;;
37485;SDS011;23341;50.296;18.960;2023-06-22T10:35:36;8.48;;;6.32;;
37485;SDS011;23341;50.296;18.960;2023-06-22T10:40:42;10.70;;;7.43;;
37485;SDS011;23341;50.296;18.960;2023-06-22T10:45:46;6.95;;;6.25;;
37485;SDS011;23341;50.296;18.960;2023-06-22T10:50:51;8.00;;;7.03;;
37485;SDS011;23341;50.296;18.960;2023-06-22T10:55:57;9.15;;;6.47;;
37485;SDS011;23341;50.296;18.960;2023-06-22T11:01:01;8.13;;;6.97;;
37485;SDS011;23341;50.296;18.960;2023-06-22T11:06:06;7.43;;;6.72;;
37485;SDS011;23341;50.296;18.960;2023-06-22T11:11:12;8.00;;;7.10;;
37485;SDS011;23341;50.296;18.960;2023-06-22T11:16:16;7.13;;;6.53;;
37485;SDS011;23341;50.296;18.960;2023-06-22T11:21:20;8.60;;;6.55;;
37485;SDS011;23341;50.296;18.960;2023-06-22T11:26:26;9.13;;;6.82;;
37485;SDS011;23341;50.296;18.960;2023-06-22T11:31:31;12.13;;;6.80;;
37485;SDS011;23341;50.296;18.960;2023-06-22T11:36:35;7.82;;;7.13;;
37485;SDS011;23341;50.296;18.960;2023-06-22T11:41:41;14.82;;;7.22;;
37485;SDS011;23341;50.296;18.960;2023-06-22T11:46:45;9.05;;;6.53;;
37485;SDS011;23341;50.296;18.960;2023-06-22T11:51:50;6.85;;;6.25;;
37485;SDS011;23341;50.296;18.960;2023-06-22T11:56:56;27.52;;;8.00;;
37485;SDS011;23341;50.296;18.960;2023-06-22T12:02:00;7.38;;;6.70;;
37485;SDS011;23341;50.296;18.960;2023-06-22T12:07:06;7.55;;;6.78;;
37485;SDS011;23341;50.296;18.960;2023-06-22T12:12:12;7.15;;;6.30;;
37485;SDS011;23341;50.296;18.960;2023-06-22T12:17:16;6.72;;;6.13;;
37485;SDS011;23341;50.296;18.960;2023-06-22T12:22:20;6.93;;;6.43;;
37485;SDS011;23341;50.296;18.960;2023-06-22T12:27:26;7.38;;;6.65;;
37485;SDS011;23341;50.296;18.960;2023-06-22T12:32:32;8.00;;;7.22;;
37485;SDS011;23341;50.296;18.960;2023-06-22T12:37:37;8.95;;;7.63;;
37485;SDS011;23341;50.296;18.960;2023-06-22T12:42:42;11.27;;;7.20;;
37485;SDS011;23341;50.296;18.960;2023-06-22T12:47:48;27.75;;;7.47;;
37485;SDS011;23341;50.296;18.960;2023-06-22T12:52:53;7.70;;;7.00;;
37485;SDS011;23341;50.296;18.960;2023-06-22T12:57:59;7.97;;;7.18;;
37485;SDS011;23341;50.296;18.960;2023-06-22T13:03:03;8.20;;;7.25;;
37485;SDS011;23341;50.296;18.960;2023-06-22T13:08:08;7.40;;;6.80;;
37485;SDS011;23341;50.296;18.960;2023-06-22T13:13:16;9.95;;;6.97;;
37485;SDS011;23341;50.296;18.960;2023-06-22T13:18:21;7.05;;;6.35;;
37485;SDS011;23341;50.296;18.960;2023-06-22T13:23:25;7.75;;;6.15;;
37485;SDS011;23341;50.296;18.960;2023-06-22T13:28:31;10.38;;;7.53;;
37485;SDS011;23341;50.296;18.960;2023-06-22T13:33:35;10.90;;;7.80;;
37485;SDS011;23341;50.296;18.960;2023-06-22T13:38:43;7.32;;;6.72;;
37485;SDS011;23341;50.296;18.960;2023-06-22T13:43:48;7.28;;;6.60;;
37485;SDS011;23341;50.296;18.960;2023-06-22T13:48:53;8.68;;;6.20;;
37485;SDS011;23341;50.296;18.960;2023-06-22T13:53:58;9.88;;;5.88;;
37485;SDS011;23341;50.296;18.960;2023-06-22T13:59:04;7.05;;;6.45;;
37485;SDS011;23341;50.296;18.960;2023-06-22T14:04:09;6.93;;;6.32;;
37485;SDS011;23341;50.296;18.960;2023-06-22T14:09:14;9.43;;;6.60;;
37485;SDS011;23341;50.296;18.960;2023-06-22T14:14:20;6.80;;;6.30;;
37485;SDS011;23341;50.296;18.960;2023-06-22T14:19:25;7.18;;;6.57;;
37485;SDS011;23341;50.296;18.960;2023-06-22T14:24:29;7.10;;;6.60;;
37485;SDS011;23341;50.296;18.960;2023-06-22T14:29:35;6.93;;;6.32;;
37485;SDS011;23341;50.296;18.960;2023-06-22T14:34:39;6.78;;;6.15;;
37485;SDS011;23341;50.296;18.960;2023-06-22T14:39:43;6.65;;;6.15;;
37485;SDS011;23341;50.296;18.960;2023-06-22T14:44:49;7.15;;;5.65;;
37485;SDS011;23341;50.296;18.960;2023-06-22T14:49:53;6.82;;;6.30;;
37485;SDS011;23341;50.296;18.960;2023-06-22T14:54:58;9.13;;;7.03;;
37485;SDS011;23341;50.296;18.960;2023-06-22T15:00:05;6.72;;;6.18;;
37485;SDS011;23341;50.296;18.960;2023-06-22T15:05:10;8.13;;;6.50;;
37485;SDS011;23341;50.296;18.960;2023-06-22T15:10:15;7.65;;;6.53;;
37485;SDS011;23341;50.296;18.960;2023-06-22T15:15:21;11.25;;;6.20;;
37485;SDS011;23341;50.296;18.960;2023-06-22T15:20:25;7.05;;;5.43;;
37485;SDS011;23341;50.296;18.960;2023-06-22T15:25:30;6.57;;;5.97;;
37485;SDS011;23341;50.296;18.960;2023-06-22T15:30:35;6.78;;;6.28;;
37485;SDS011;23341;50.296;18.960;2023-06-22T15:35:40;6.40;;;5.90;;
37485;SDS011;23341;50.296;18.960;2023-06-22T15:40:44;6.85;;;6.13;;
37485;SDS011;23341;50.296;18.960;2023-06-22T15:45:51;12.68;;;6.03;;
37485;SDS011;23341;50.296;18.960;2023-06-22T15:50:57;6.47;;;5.82;;
37485;SDS011;23341;50.296;18.960;2023-06-22T15:56:01;7.43;;;6.13;;
37485;SDS011;23341;50.296;18.960;2023-06-22T16:01:08;7.75;;;5.57;;
37485;SDS011;23341;50.296;18.960;2023-06-22T16:06:13;6.38;;;5.78;;
37485;SDS011;23341;50.296;18.960;2023-06-22T16:11:18;6.63;;;5.97;;
37485;SDS011;23341;50.296;18.960;2023-06-22T16:16:23;8.45;;;6.55;;
37485;SDS011;23341;50.296;18.960;2023-06-22T16:21:28;24.52;;;8.32;;
37485;SDS011;23341;50.296;18.960;2023-06-22T16:26:37;7.55;;;6.13;;
37485;SDS011;23341;50.296;18.960;2023-06-22T16:31:44;10.20;;;6.00;;
37485;SDS011;23341;50.296;18.960;2023-06-22T16:36:48;7.00;;;6.30;;
37485;SDS011;23341;50.296;18.960;2023-06-22T16:41:54;7.32;;;6.07;;
37485;SDS011;23341;50.296;18.960;2023-06-22T16:47:02;6.60;;;6.07;;
37485;SDS011;23341;50.296;18.960;2023-06-22T16:52:07;7.75;;;6.90;;
37485;SDS011;23341;50.296;18.960;2023-06-22T16:57:12;8.05;;;7.20;;
37485;SDS011;23341;50.296;18.960;2023-06-22T17:02:20;7.80;;;6.47;;
37485;SDS011;23341;50.296;18.960;2023-06-22T17:07:27;9.35;;;6.63;;
37485;SDS011;23341;50.296;18.960;2023-06-22T17:12:33;7.93;;;6.45;;
37485;SDS011;23341;50.296;18.960;2023-06-22T17:17:39;6.78;;;6.28;;
37485;SDS011;23341;50.296;18.960;2023-06-22T17:22:44;7.95;;;7.05;;
37485;SDS011;23341;50.296;18.960;2023-06-22T17:27:49;8.23;;;6.75;;
37485;SDS011;23341;50.296;18.960;2023-06-22T17:32:54;7.40;;;6.63;;
37485;SDS011;23341;50.296;18.960;2023-06-22T17:38:01;7.45;;;6.75;;
37485;SDS011;23341;50.296;18.960;2023-06-22T17:43:05;8.23;;;7.13;;
37485;SDS011;23341;50.296;18.960;2023-06-22T17:48:12;9.75;;;7.50;;
37485;SDS011;23341;50.296;18.960;2023-06-22T17:53:17;9.18;;;7.20;;
37485;SDS011;23341;50.296;18.960;2023-06-22T17:58:21;131.20;;;13.27;;
37485;SDS011;23341;50.296;18.960;2023-06-22T18:03:27;9.13;;;7.10;;
37485;SDS011;23341;50.296;18.960;2023-06-22T18:08:31;7.25;;;6.47;;
37485;SDS011;23341;50.296;18.960;2023-06-22T18:13:37;7.50;;;6.90;;
37485;SDS011;23341;50.296;18.960;2023-06-22T18:18:43;7.90;;;6.75;;
37485;SDS011;23341;50.296;18.960;2023-06-22T18:23:48;9.57;;;7.55;;
37485;SDS011;23341;50.296;18.960;2023-06-22T18:28:55;12.32;;;7.25;;
37485;SDS011;23341;50.296;18.960;2023-06-22T18:34:01;7.88;;;7.10;;
37485;SDS011;23341;50.296;18.960;2023-06-22T18:39:06;7.63;;;6.75;;
37485;SDS011;23341;50.296;18.960;2023-06-22T18:44:18;8.20;;;6.78;;
37485;SDS011;23341;50.296;18.960;2023-06-22T18:49:25;7.70;;;6.68;;
37485;SDS011;23341;50.296;18.960;2023-06-22T18:54:35;10.68;;;7.43;;
37485;SDS011;23341;50.296;18.960;2023-06-22T18:59:41;9.98;;;7.13;;
37485;SDS011;23341;50.296;18.960;2023-06-22T19:04:49;9.90;;;8.10;;
37485;SDS011;23341;50.296;18.960;2023-06-22T19:15:30;8.32;;;7.55;;
37485;SDS011;23341;50.296;18.960;2023-06-22T19:20:37;9.60;;;7.88;;
37485;SDS011;23341;50.296;18.960;2023-06-22T19:25:43;13.95;;;8.63;;
37485;SDS011;23341;50.296;18.960;2023-06-22T19:30:50;9.55;;;8.10;;
37485;SDS011;23341;50.296;18.960;2023-06-22T19:35:59;10.73;;;8.10;;
37485;SDS011;23341;50.296;18.960;2023-06-22T19:41:06;11.05;;;7.90;;
37485;SDS011;23341;50.296;18.960;2023-06-22T19:46:11;10.57;;;9.40;;
37485;SDS011;23341;50.296;18.960;2023-06-22T19:51:18;8.98;;;8.18;;
37485;SDS011;23341;50.296;18.960;2023-06-22T19:56:22;12.55;;;8.88;;
37485;SDS011;23341;50.296;18.960;2023-06-22T20:01:26;9.50;;;8.60;;
37485;SDS011;23341;50.296;18.960;2023-06-22T20:06:33;9.60;;;8.57;;
37485;SDS011;23341;50.296;18.960;2023-06-22T20:11:38;8.65;;;7.85;;
37485;SDS011;23341;50.296;18.960;2023-06-22T20:16:45;8.10;;;7.40;;
37485;SDS011;23341;50.296;18.960;2023-06-22T20:21:57;12.30;;;9.00;;
37485;SDS011;23341;50.296;18.960;2023-06-22T20:27:10;8.70;;;7.82;;
37485;SDS011;23341;50.296;18.960;2023-06-22T20:32:15;9.75;;;7.88;;
37485;SDS011;23341;50.296;18.960;2023-06-22T20:37:21;9.68;;;8.57;;
37485;SDS011;23341;50.296;18.960;2023-06-22T20:42:26;10.32;;;9.23;;
37485;SDS011;23341;50.296;18.960;2023-06-22T20:47:30;10.02;;;8.43;;
37485;SDS011;23341;50.296;18.960;2023-06-22T20:52:36;9.65;;;8.55;;
37485;SDS011;23341;50.296;18.960;2023-06-22T20:57:42;9.32;;;8.32;;
37485;SDS011;23341;50.296;18.960;2023-06-22T21:02:47;9.50;;;8.60;;
37485;SDS011;23341;50.296;18.960;2023-06-22T21:07:56;9.43;;;8.63;;
37485;SDS011;23341;50.296;18.960;2023-06-22T21:13:01;9.45;;;8.48;;
37485;SDS011;23341;50.296;18.960;2023-06-22T21:18:05;10.20;;;8.27;;
37485;SDS011;23341;50.296;18.960;2023-06-22T21:23:11;9.50;;;8.70;;
37485;SDS011;23341;50.296;18.960;2023-06-22T21:28:15;9.75;;;8.70;;
37485;SDS011;23341;50.296;18.960;2023-06-22T21:33:20;10.23;;;9.20;;
37485;SDS011;23341;50.296;18.960;2023-06-22T21:38:26;8.63;;;7.93;;
37485;SDS011;23341;50.296;18.960;2023-06-22T21:43:30;10.05;;;9.10;;
37485;SDS011;23341;50.296;18.960;2023-06-22T21:48:35;10.60;;;9.13;;
37485;SDS011;23341;50.296;18.960;2023-06-22T21:53:41;9.95;;;9.05;;
37485;SDS011;23341;50.296;18.960;2023-06-22T21:58:45;10.45;;;9.02;;
37485;SDS011;23341;50.296;18.960;2023-06-22T22:03:50;10.57;;;9.27;;
37485;SDS011;23341;50.296;18.960;2023-06-22T22:08:56;8.98;;;8.18;;
37485;SDS011;23341;50.296;18.960;2023-06-22T22:14:00;11.57;;;8.93;;
37485;SDS011;23341;50.296;18.960;2023-06-22T22:19:04;9.93;;;8.88;;
37485;SDS011;23341;50.296;18.960;2023-06-22T22:24:11;10.35;;;9.35;;
37485;SDS011;23341;50.296;18.960;2023-06-22T22:29:16;12.30;;;8.45;;
37485;SDS011;23341;50.296;18.960;2023-06-22T22:34:21;9.68;;;8.68;;
37485;SDS011;23341;50.296;18.960;2023-06-22T22:39:30;9.10;;;8.30;;
37485;SDS011;23341;50.296;18.960;2023-06-22T22:44:37;12.02;;;8.00;;
37485;SDS011;23341;50.296;18.960;2023-06-22T22:49:42;10.18;;;9.15;;
37485;SDS011;23341;50.296;18.960;2023-06-22T22:54:47;9.38;;;8.38;;
37485;SDS011;23341;50.296;18.960;2023-06-22T22:59:52;10.00;;;9.05;;
37485;SDS011;23341;50.296;18.960;2023-06-22T23:04:56;10.95;;;9.43;;
37485;SDS011;23341;50.296;18.960;2023-06-22T23:10:03;11.50;;;8.75;;
37485;SDS011;23341;50.296;18.960;2023-06-22T23:15:08;10.35;;;9.27;;
37485;SDS011;23341;50.296;18.960;2023-06-22T23:20:14;9.98;;;9.15;;
37485;SDS011;23341;50.296;18.960;2023-06-22T23:25:22;9.95;;;9.13;;
37485;SDS011;23341;50.296;18.960;2023-06-22T23:30:27;9.93;;;9.02;;
37485;SDS011;23341;50.296;18.960;2023-06-22T23:35:34;12.82;;;9.50;;
37485;SDS011;23341;50.296;18.960;2023-06-22T23:40:40;10.18;;;9.20;;
37485;SDS011;23341;50.296;18.960;2023-06-22T23:45:47;9.70;;;8.90;;
37485;SDS011;23341;50.296;18.960;2023-06-22T23:50:51;12.15;;;10.18;;
37485;SDS011;23341;50.296;18.960;2023-06-22T23:55:57;13.35;;;9.65;;
